sensor_id;sensor_type;location;lat;lon;timestamp;P1;durP1;ratioP1;P2;durP2;ratioP2
6019;SDS011;3038;51.122;6.840;2023-12-20T00:01:02;21.73;;;14.80;;
6019;SDS011;3038;51.122;6.840;2023-12-20T00:03:28;8.90;;;6.23;;
6019;SDS011;3038;51.122;6.840;2023-12-20T00:05:53;11.03;;;6.80;;
6019;SDS011;3038;51.122;6.840;2023-12-20T00:08:18;12.40;;;7.17;;
6019;SDS011;3038;51.122;6.840;2023-12-20T00:10:44;7.27;;;4.20;;
6019;SDS011;3038;51.122;6.840;2023-12-20T00:13:10;8.37;;;6.00;;
6019;SDS011;3038;51.122;6.840;2023-12-20T00:15:35;12.03;;;6.33;;
6019;SDS011;3038;51.122;6.840;2023-12-20T00:18:01;16.10;;;9.27;;
6019;SDS011;3038;51.122;6.840;2023-12-20T00:20:27;10.33;;;6.87;;
6019;SDS011;3038;51.122;6.840;2023-12-20T00:22:54;12.47;;;6.63;;
6019;SDS011;3038;51.122;6.840;2023-12-20T00:25:21;11.67;;;7.00;;
6019;SDS011;3038;51.122;6.840;2023-12-20T00:27:47;10.93;;;6.80;;
6019;SDS011;3038;51.122;6.840;2023-12-20T00:30:13;12.07;;;5.80;;
6019;SDS011;3038;51.122;6.840;2023-12-20T00:32:38;9.20;;;4.70;;
6019;SDS011;3038;51.122;6.840;2023-12-20T00:35:04;4.77;;;4.10;;
6019;SDS011;3038;51.122;6.840;2023-12-20T00:37:29;7.23;;;4.20;;
6019;SDS011;3038;51.122;6.840;2023-12-20T00:39:55;5.97;;;3.90;;
6019;SDS011;3038;51.122;6.840;2023-12-20T00:42:20;8.23;;;4.67;;
6019;SDS011;3038;51.122;6.840;2023-12-20T00:44:46;5.67;;;5.07;;
6019;SDS011;3038;51.122;6.840;2023-12-20T00:47:11;7.53;;;5.07;;
6019;SDS011;3038;51.122;6.840;2023-12-20T00:49:36;7.27;;;5.33;;
6019;SDS011;3038;51.122;6.840;2023-12-20T00:52:02;11.40;;;6.70;;
6019;SDS011;3038;51.122;6.840;2023-12-20T00:54:27;11.63;;;5.10;;
6019;SDS011;3038;51.122;6.840;2023-12-20T00:56:53;13.53;;;6.43;;
6019;SDS011;3038;51.122;6.840;2023-12-20T00:59:18;11.20;;;7.10;;
6019;SDS011;3038;51.122;6.840;2023-12-20T01:01:44;10.30;;;6.20;;
6019;SDS011;3038;51.122;6.840;2023-12-20T01:04:09;10.20;;;6.67;;
6019;SDS011;3038;51.122;6.840;2023-12-20T01:06:35;10.00;;;7.10;;
6019;SDS011;3038;51.122;6.840;2023-12-20T01:09:00;13.93;;;7.10;;
6019;SDS011;3038;51.122;6.840;2023-12-20T01:11:25;15.27;;;7.77;;
6019;SDS011;3038;51.122;6.840;2023-12-20T01:13:51;19.63;;;7.93;;
6019;SDS011;3038;51.122;6.840;2023-12-20T01:16:16;13.27;;;7.70;;
6019;SDS011;3038;51.122;6.840;2023-12-20T01:18:41;10.83;;;7.30;;
6019;SDS011;3038;51.122;6.840;2023-12-20T01:21:07;16.40;;;7.80;;
6019;SDS011;3038;51.122;6.840;2023-12-20T01:23:32;10.70;;;7.23;;
6019;SDS011;3038;51.122;6.840;2023-12-20T01:25:58;16.53;;;9.07;;
6019;SDS011;3038;51.122;6.840;2023-12-20T01:28:24;16.90;;;10.47;;
6019;SDS011;3038;51.122;6.840;2023-12-20T01:30:50;20.07;;;11.03;;
6019;SDS011;3038;51.122;6.840;2023-12-20T01:33:16;17.00;;;10.73;;
6019;SDS011;3038;51.122;6.840;2023-12-20T01:35:41;21.47;;;13.50;;
6019;SDS011;3038;51.122;6.840;2023-12-20T01:38:06;18.47;;;12.57;;
6019;SDS011;3038;51.122;6.840;2023-12-20T01:40:32;19.20;;;11.37;;
6019;SDS011;3038;51.122;6.840;2023-12-20T01:43:01;18.13;;;11.30;;
6019;SDS011;3038;51.122;6.840;2023-12-20T01:45:30;17.13;;;8.80;;
6019;SDS011;3038;51.122;6.840;2023-12-20T01:47:57;16.50;;;10.47;;
6019;SDS011;3038;51.122;6.840;2023-12-20T01:50:24;24.13;;;11.77;;
6019;SDS011;3038;51.122;6.840;2023-12-20T01:52:50;14.50;;;10.20;;
6019;SDS011;3038;51.122;6.840;2023-12-20T01:55:17;18.73;;;10.03;;
6019;SDS011;3038;51.122;6.840;2023-12-20T01:57:44;15.33;;;10.17;;
6019;SDS011;3038;51.122;6.840;2023-12-20T02:00:12;11.17;;;8.47;;
6019;SDS011;3038;51.122;6.840;2023-12-20T02:02:39;15.13;;;8.60;;
6019;SDS011;3038;51.122;6.840;2023-12-20T02:05:05;17.30;;;11.10;;
6019;SDS011;3038;51.122;6.840;2023-12-20T02:07:31;19.43;;;11.10;;
6019;SDS011;3038;51.122;6.840;2023-12-20T02:09:58;16.73;;;7.63;;
6019;SDS011;3038;51.122;6.840;2023-12-20T02:12:23;25.47;;;10.77;;
6019;SDS011;3038;51.122;6.840;2023-12-20T02:14:48;13.20;;;9.50;;
6019;SDS011;3038;51.122;6.840;2023-12-20T02:17:15;15.30;;;8.30;;
6019;SDS011;3038;51.122;6.840;2023-12-20T02:19:41;14.03;;;9.70;;
6019;SDS011;3038;51.122;6.840;2023-12-20T02:22:07;15.53;;;8.60;;
6019;SDS011;3038;51.122;6.840;2023-12-20T02:24:33;19.53;;;10.10;;
6019;SDS011;3038;51.122;6.840;2023-12-20T02:26:59;16.77;;;9.23;;
6019;SDS011;3038;51.122;6.840;2023-12-20T02:29:24;20.20;;;9.83;;
6019;SDS011;3038;51.122;6.840;2023-12-20T02:31:50;12.70;;;8.70;;
6019;SDS011;3038;51.122;6.840;2023-12-20T02:34:15;18.13;;;9.50;;
6019;SDS011;3038;51.122;6.840;2023-12-20T02:36:40;16.83;;;7.13;;
6019;SDS011;3038;51.122;6.840;2023-12-20T02:39:06;14.23;;;7.10;;
6019;SDS011;3038;51.122;6.840;2023-12-20T02:41:31;16.97;;;7.90;;
6019;SDS011;3038;51.122;6.840;2023-12-20T02:43:56;15.07;;;6.50;;
6019;SDS011;3038;51.122;6.840;2023-12-20T02:46:22;18.47;;;8.07;;
6019;SDS011;3038;51.122;6.840;2023-12-20T02:48:48;12.73;;;5.60;;
6019;SDS011;3038;51.122;6.840;2023-12-20T02:51:13;11.67;;;6.10;;
6019;SDS011;3038;51.122;6.840;2023-12-20T02:53:38;9.20;;;4.47;;
6019;SDS011;3038;51.122;6.840;2023-12-20T02:56:04;12.07;;;5.30;;
6019;SDS011;3038;51.122;6.840;2023-12-20T02:58:29;12.53;;;5.10;;
6019;SDS011;3038;51.122;6.840;2023-12-20T03:00:55;14.40;;;4.90;;
6019;SDS011;3038;51.122;6.840;2023-12-20T03:03:20;10.80;;;5.00;;
6019;SDS011;3038;51.122;6.840;2023-12-20T03:05:45;8.77;;;4.83;;
6019;SDS011;3038;51.122;6.840;2023-12-20T03:08:11;12.90;;;4.60;;
6019;SDS011;3038;51.122;6.840;2023-12-20T03:10:37;13.03;;;3.83;;
6019;SDS011;3038;51.122;6.840;2023-12-20T03:13:02;10.67;;;4.10;;
6019;SDS011;3038;51.122;6.840;2023-12-20T03:15:27;13.03;;;3.83;;
6019;SDS011;3038;51.122;6.840;2023-12-20T03:17:53;16.67;;;4.57;;
6019;SDS011;3038;51.122;6.840;2023-12-20T03:20:18;16.57;;;3.90;;
6019;SDS011;3038;51.122;6.840;2023-12-20T03:22:43;18.83;;;4.30;;
6019;SDS011;3038;51.122;6.840;2023-12-20T03:25:09;11.70;;;4.53;;
6019;SDS011;3038;51.122;6.840;2023-12-20T03:27:36;9.60;;;4.20;;
6019;SDS011;3038;51.122;6.840;2023-12-20T03:30:02;22.57;;;4.93;;
6019;SDS011;3038;51.122;6.840;2023-12-20T03:32:28;12.30;;;4.10;;
6019;SDS011;3038;51.122;6.840;2023-12-20T03:34:53;6.50;;;3.50;;
6019;SDS011;3038;51.122;6.840;2023-12-20T03:37:19;19.27;;;5.57;;
6019;SDS011;3038;51.122;6.840;2023-12-20T03:39:44;6.67;;;4.87;;
6019;SDS011;3038;51.122;6.840;2023-12-20T03:42:09;14.70;;;5.90;;
6019;SDS011;3038;51.122;6.840;2023-12-20T03:44:38;13.53;;;4.27;;
6019;SDS011;3038;51.122;6.840;2023-12-20T03:47:03;13.73;;;5.00;;
6019;SDS011;3038;51.122;6.840;2023-12-20T03:49:29;7.70;;;3.27;;
6019;SDS011;3038;51.122;6.840;2023-12-20T03:51:54;7.07;;;3.40;;
6019;SDS011;3038;51.122;6.840;2023-12-20T03:54:19;14.30;;;4.80;;
6019;SDS011;3038;51.122;6.840;2023-12-20T03:56:45;14.50;;;3.87;;
6019;SDS011;3038;51.122;6.840;2023-12-20T03:59:10;9.23;;;4.50;;
6019;SDS011;3038;51.122;6.840;2023-12-20T04:01:35;8.23;;;3.50;;
6019;SDS011;3038;51.122;6.840;2023-12-20T04:04:01;9.37;;;3.50;;
6019;SDS011;3038;51.122;6.840;2023-12-20T04:06:26;9.20;;;4.30;;
6019;SDS011;3038;51.122;6.840;2023-12-20T04:08:53;9.60;;;4.67;;
6019;SDS011;3038;51.122;6.840;2023-12-20T04:11:18;11.73;;;4.43;;
6019;SDS011;3038;51.122;6.840;2023-12-20T04:13:43;15.27;;;5.47;;
6019;SDS011;3038;51.122;6.840;2023-12-20T04:16:09;11.70;;;4.93;;
6019;SDS011;3038;51.122;6.840;2023-12-20T04:18:34;14.33;;;4.93;;
6019;SDS011;3038;51.122;6.840;2023-12-20T04:21:00;17.17;;;5.10;;
6019;SDS011;3038;51.122;6.840;2023-12-20T04:23:25;10.33;;;3.90;;
6019;SDS011;3038;51.122;6.840;2023-12-20T04:25:50;12.80;;;4.63;;
6019;SDS011;3038;51.122;6.840;2023-12-20T04:28:16;11.70;;;4.67;;
6019;SDS011;3038;51.122;6.840;2023-12-20T04:30:41;13.97;;;5.00;;
6019;SDS011;3038;51.122;6.840;2023-12-20T04:33:07;9.80;;;4.33;;
6019;SDS011;3038;51.122;6.840;2023-12-20T04:35:32;15.37;;;4.50;;
6019;SDS011;3038;51.122;6.840;2023-12-20T04:37:58;14.80;;;4.97;;
6019;SDS011;3038;51.122;6.840;2023-12-20T04:40:23;9.70;;;5.50;;
6019;SDS011;3038;51.122;6.840;2023-12-20T04:42:48;15.50;;;4.73;;
6019;SDS011;3038;51.122;6.840;2023-12-20T04:45:14;10.63;;;5.47;;
6019;SDS011;3038;51.122;6.840;2023-12-20T04:47:41;14.37;;;4.30;;
6019;SDS011;3038;51.122;6.840;2023-12-20T04:50:07;16.50;;;6.27;;
6019;SDS011;3038;51.122;6.840;2023-12-20T04:52:33;10.17;;;4.30;;
6019;SDS011;3038;51.122;6.840;2023-12-20T04:54:58;13.17;;;5.20;;
6019;SDS011;3038;51.122;6.840;2023-12-20T04:57:24;14.83;;;5.33;;
6019;SDS011;3038;51.122;6.840;2023-12-20T04:59:49;15.80;;;6.00;;
6019;SDS011;3038;51.122;6.840;2023-12-20T05:02:15;9.23;;;4.10;;
6019;SDS011;3038;51.122;6.840;2023-12-20T05:04:40;12.43;;;6.17;;
6019;SDS011;3038;51.122;6.840;2023-12-20T05:07:06;14.10;;;5.17;;
6019;SDS011;3038;51.122;6.840;2023-12-20T05:09:32;11.93;;;5.87;;
6019;SDS011;3038;51.122;6.840;2023-12-20T05:11:57;15.03;;;5.93;;
6019;SDS011;3038;51.122;6.840;2023-12-20T05:14:22;18.03;;;5.37;;
6019;SDS011;3038;51.122;6.840;2023-12-20T05:16:48;6.77;;;3.93;;
6019;SDS011;3038;51.122;6.840;2023-12-20T05:19:13;12.13;;;5.93;;
6019;SDS011;3038;51.122;6.840;2023-12-20T05:21:39;10.60;;;5.37;;
6019;SDS011;3038;51.122;6.840;2023-12-20T05:24:04;11.57;;;5.20;;
6019;SDS011;3038;51.122;6.840;2023-12-20T05:26:30;12.60;;;5.33;;
6019;SDS011;3038;51.122;6.840;2023-12-20T05:28:55;13.67;;;5.40;;
6019;SDS011;3038;51.122;6.840;2023-12-20T05:31:20;12.87;;;4.30;;
6019;SDS011;3038;51.122;6.840;2023-12-20T05:33:46;12.80;;;5.67;;
6019;SDS011;3038;51.122;6.840;2023-12-20T05:36:11;11.90;;;5.60;;
6019;SDS011;3038;51.122;6.840;2023-12-20T05:38:38;12.07;;;4.90;;
6019;SDS011;3038;51.122;6.840;2023-12-20T05:41:04;13.87;;;5.53;;
6019;SDS011;3038;51.122;6.840;2023-12-20T05:43:29;9.90;;;5.23;;
6019;SDS011;3038;51.122;6.840;2023-12-20T05:45:55;12.87;;;5.90;;
6019;SDS011;3038;51.122;6.840;2023-12-20T05:48:20;13.30;;;5.00;;
6019;SDS011;3038;51.122;6.840;2023-12-20T05:50:45;13.20;;;5.60;;
6019;SDS011;3038;51.122;6.840;2023-12-20T05:53:11;13.13;;;4.67;;
6019;SDS011;3038;51.122;6.840;2023-12-20T05:55:36;13.00;;;6.93;;
6019;SDS011;3038;51.122;6.840;2023-12-20T05:58:02;9.07;;;4.43;;
6019;SDS011;3038;51.122;6.840;2023-12-20T06:02:52;10.63;;;4.40;;
6019;SDS011;3038;51.122;6.840;2023-12-20T06:05:17;9.30;;;5.47;;
6019;SDS011;3038;51.122;6.840;2023-12-20T06:07:42;11.43;;;4.80;;
6019;SDS011;3038;51.122;6.840;2023-12-20T06:10:08;14.40;;;4.83;;
6019;SDS011;3038;51.122;6.840;2023-12-20T06:12:34;8.50;;;2.77;;
6019;SDS011;3038;51.122;6.840;2023-12-20T06:15:01;11.80;;;4.90;;
6019;SDS011;3038;51.122;6.840;2023-12-20T06:17:27;9.53;;;5.30;;
6019;SDS011;3038;51.122;6.840;2023-12-20T06:19:55;5.93;;;2.87;;
6019;SDS011;3038;51.122;6.840;2023-12-20T06:22:20;12.80;;;4.83;;
6019;SDS011;3038;51.122;6.840;2023-12-20T06:24:46;14.90;;;4.63;;
6019;SDS011;3038;51.122;6.840;2023-12-20T06:27:11;13.57;;;4.60;;
6019;SDS011;3038;51.122;6.840;2023-12-20T06:29:36;10.60;;;5.80;;
6019;SDS011;3038;51.122;6.840;2023-12-20T06:32:02;8.17;;;3.67;;
6019;SDS011;3038;51.122;6.840;2023-12-20T06:34:30;9.53;;;4.30;;
6019;SDS011;3038;51.122;6.840;2023-12-20T06:36:55;8.93;;;3.90;;
6019;SDS011;3038;51.122;6.840;2023-12-20T06:39:21;8.10;;;4.20;;
6019;SDS011;3038;51.122;6.840;2023-12-20T06:41:46;9.07;;;4.93;;
6019;SDS011;3038;51.122;6.840;2023-12-20T06:44:11;25.67;;;4.80;;
6019;SDS011;3038;51.122;6.840;2023-12-20T06:46:37;4.70;;;3.30;;
6019;SDS011;3038;51.122;6.840;2023-12-20T06:49:02;12.27;;;5.00;;
6019;SDS011;3038;51.122;6.840;2023-12-20T06:51:28;12.40;;;3.20;;
6019;SDS011;3038;51.122;6.840;2023-12-20T06:53:53;11.77;;;4.80;;
6019;SDS011;3038;51.122;6.840;2023-12-20T06:56:19;13.60;;;4.73;;
6019;SDS011;3038;51.122;6.840;2023-12-20T06:58:46;12.53;;;5.10;;
6019;SDS011;3038;51.122;6.840;2023-12-20T07:01:15;4.00;;;3.30;;
6019;SDS011;3038;51.122;6.840;2023-12-20T07:03:41;8.77;;;4.23;;
6019;SDS011;3038;51.122;6.840;2023-12-20T07:06:07;12.67;;;5.50;;
6019;SDS011;3038;51.122;6.840;2023-12-20T07:08:33;12.10;;;5.07;;
6019;SDS011;3038;51.122;6.840;2023-12-20T07:11:00;15.03;;;4.83;;
6019;SDS011;3038;51.122;6.840;2023-12-20T07:13:26;8.03;;;4.53;;
6019;SDS011;3038;51.122;6.840;2023-12-20T07:15:51;6.60;;;3.63;;
6019;SDS011;3038;51.122;6.840;2023-12-20T07:18:17;10.53;;;3.83;;
6019;SDS011;3038;51.122;6.840;2023-12-20T07:20:42;13.17;;;5.50;;
6019;SDS011;3038;51.122;6.840;2023-12-20T07:23:08;10.70;;;4.73;;
6019;SDS011;3038;51.122;6.840;2023-12-20T07:25:34;14.03;;;5.20;;
6019;SDS011;3038;51.122;6.840;2023-12-20T07:27:59;15.53;;;5.80;;
6019;SDS011;3038;51.122;6.840;2023-12-20T07:30:24;8.00;;;4.37;;
6019;SDS011;3038;51.122;6.840;2023-12-20T07:32:50;13.10;;;5.63;;
6019;SDS011;3038;51.122;6.840;2023-12-20T07:35:16;5.53;;;3.13;;
6019;SDS011;3038;51.122;6.840;2023-12-20T07:37:41;22.70;;;5.10;;
6019;SDS011;3038;51.122;6.840;2023-12-20T07:40:07;9.50;;;4.83;;
6019;SDS011;3038;51.122;6.840;2023-12-20T07:42:36;10.90;;;5.50;;
6019;SDS011;3038;51.122;6.840;2023-12-20T07:45:01;7.00;;;4.53;;
6019;SDS011;3038;51.122;6.840;2023-12-20T07:47:29;9.40;;;5.40;;
6019;SDS011;3038;51.122;6.840;2023-12-20T07:49:57;9.50;;;5.10;;
6019;SDS011;3038;51.122;6.840;2023-12-20T07:52:22;13.30;;;6.00;;
6019;SDS011;3038;51.122;6.840;2023-12-20T07:54:48;16.50;;;6.30;;
6019;SDS011;3038;51.122;6.840;2023-12-20T07:57:13;16.03;;;6.27;;
6019;SDS011;3038;51.122;6.840;2023-12-20T07:59:39;8.00;;;4.30;;
6019;SDS011;3038;51.122;6.840;2023-12-20T08:02:06;10.67;;;5.23;;
6019;SDS011;3038;51.122;6.840;2023-12-20T08:04:32;11.30;;;4.57;;
6019;SDS011;3038;51.122;6.840;2023-12-20T08:06:57;5.93;;;4.50;;
6019;SDS011;3038;51.122;6.840;2023-12-20T08:09:23;9.03;;;4.97;;
6019;SDS011;3038;51.122;6.840;2023-12-20T08:11:49;9.83;;;4.60;;
6019;SDS011;3038;51.122;6.840;2023-12-20T08:14:15;10.03;;;6.30;;
6019;SDS011;3038;51.122;6.840;2023-12-20T08:16:40;15.50;;;6.17;;
6019;SDS011;3038;51.122;6.840;2023-12-20T08:19:06;5.67;;;3.93;;
6019;SDS011;3038;51.122;6.840;2023-12-20T08:21:32;5.67;;;3.40;;
6019;SDS011;3038;51.122;6.840;2023-12-20T08:23:58;11.97;;;5.63;;
6019;SDS011;3038;51.122;6.840;2023-12-20T08:26:25;12.50;;;5.47;;
6019;SDS011;3038;51.122;6.840;2023-12-20T08:28:51;11.20;;;5.07;;
6019;SDS011;3038;51.122;6.840;2023-12-20T08:31:17;14.23;;;5.00;;
6019;SDS011;3038;51.122;6.840;2023-12-20T08:33:43;7.37;;;5.57;;
6019;SDS011;3038;51.122;6.840;2023-12-20T08:36:09;13.80;;;5.70;;
6019;SDS011;3038;51.122;6.840;2023-12-20T08:38:35;9.37;;;5.07;;
6019;SDS011;3038;51.122;6.840;2023-12-20T08:41:00;11.40;;;6.03;;
6019;SDS011;3038;51.122;6.840;2023-12-20T08:43:27;9.67;;;4.07;;
6019;SDS011;3038;51.122;6.840;2023-12-20T08:45:53;11.50;;;3.97;;
6019;SDS011;3038;51.122;6.840;2023-12-20T08:48:19;7.90;;;5.13;;
6019;SDS011;3038;51.122;6.840;2023-12-20T08:50:44;15.80;;;5.87;;
6019;SDS011;3038;51.122;6.840;2023-12-20T08:53:11;9.70;;;4.17;;
6019;SDS011;3038;51.122;6.840;2023-12-20T08:55:36;11.30;;;5.00;;
6019;SDS011;3038;51.122;6.840;2023-12-20T08:58:02;11.03;;;5.10;;
6019;SDS011;3038;51.122;6.840;2023-12-20T09:00:27;9.23;;;3.47;;
6019;SDS011;3038;51.122;6.840;2023-12-20T09:02:53;10.93;;;4.60;;
6019;SDS011;3038;51.122;6.840;2023-12-20T09:05:19;11.73;;;4.43;;
6019;SDS011;3038;51.122;6.840;2023-12-20T09:07:47;10.50;;;4.60;;
6019;SDS011;3038;51.122;6.840;2023-12-20T09:10:12;21.13;;;5.07;;
6019;SDS011;3038;51.122;6.840;2023-12-20T09:12:38;8.00;;;4.07;;
6019;SDS011;3038;51.122;6.840;2023-12-20T09:15:06;15.63;;;6.10;;
6019;SDS011;3038;51.122;6.840;2023-12-20T09:17:31;13.20;;;4.90;;
6019;SDS011;3038;51.122;6.840;2023-12-20T09:19:56;11.90;;;4.73;;
6019;SDS011;3038;51.122;6.840;2023-12-20T09:22:22;10.57;;;4.33;;
6019;SDS011;3038;51.122;6.840;2023-12-20T09:24:48;12.00;;;4.87;;
6019;SDS011;3038;51.122;6.840;2023-12-20T09:27:13;9.70;;;4.60;;
6019;SDS011;3038;51.122;6.840;2023-12-20T09:29:41;10.53;;;4.40;;
6019;SDS011;3038;51.122;6.840;2023-12-20T09:32:06;8.80;;;3.47;;
6019;SDS011;3038;51.122;6.840;2023-12-20T09:34:31;5.77;;;3.07;;
6019;SDS011;3038;51.122;6.840;2023-12-20T09:36:57;8.33;;;3.47;;
6019;SDS011;3038;51.122;6.840;2023-12-20T09:39:22;7.30;;;3.67;;
6019;SDS011;3038;51.122;6.840;2023-12-20T09:42:06;18.53;;;6.40;;
6019;SDS011;3038;51.122;6.840;2023-12-20T09:44:33;13.67;;;4.57;;
6019;SDS011;3038;51.122;6.840;2023-12-20T09:47:02;9.90;;;4.13;;
6019;SDS011;3038;51.122;6.840;2023-12-20T09:49:29;9.93;;;3.20;;
6019;SDS011;3038;51.122;6.840;2023-12-20T09:51:55;5.50;;;2.43;;
6019;SDS011;3038;51.122;6.840;2023-12-20T09:54:21;10.00;;;3.50;;
6019;SDS011;3038;51.122;6.840;2023-12-20T09:56:54;7.60;;;3.77;;
6019;SDS011;3038;51.122;6.840;2023-12-20T09:59:22;7.90;;;3.23;;
6019;SDS011;3038;51.122;6.840;2023-12-20T10:01:47;6.73;;;4.43;;
6019;SDS011;3038;51.122;6.840;2023-12-20T10:04:13;10.43;;;3.30;;
6019;SDS011;3038;51.122;6.840;2023-12-20T10:06:42;6.40;;;3.20;;
6019;SDS011;3038;51.122;6.840;2023-12-20T10:09:08;9.17;;;3.17;;
6019;SDS011;3038;51.122;6.840;2023-12-20T10:11:39;10.33;;;3.90;;
6019;SDS011;3038;51.122;6.840;2023-12-20T10:14:05;8.33;;;2.93;;
6019;SDS011;3038;51.122;6.840;2023-12-20T10:16:33;9.00;;;3.30;;
6019;SDS011;3038;51.122;6.840;2023-12-20T10:18:59;9.03;;;3.77;;
6019;SDS011;3038;51.122;6.840;2023-12-20T10:21:26;11.10;;;3.70;;
6019;SDS011;3038;51.122;6.840;2023-12-20T10:23:52;10.40;;;3.17;;
6019;SDS011;3038;51.122;6.840;2023-12-20T10:26:19;7.37;;;2.80;;
6019;SDS011;3038;51.122;6.840;2023-12-20T10:28:53;16.83;;;4.20;;
6019;SDS011;3038;51.122;6.840;2023-12-20T10:31:26;8.90;;;4.57;;
6019;SDS011;3038;51.122;6.840;2023-12-20T10:33:53;11.23;;;3.07;;
6019;SDS011;3038;51.122;6.840;2023-12-20T10:36:18;8.73;;;3.20;;
6019;SDS011;3038;51.122;6.840;2023-12-20T10:38:43;8.67;;;2.90;;
6019;SDS011;3038;51.122;6.840;2023-12-20T10:41:10;8.30;;;3.73;;
6019;SDS011;3038;51.122;6.840;2023-12-20T10:43:37;8.17;;;3.17;;
6019;SDS011;3038;51.122;6.840;2023-12-20T10:46:03;8.53;;;3.40;;
6019;SDS011;3038;51.122;6.840;2023-12-20T10:48:30;7.03;;;3.70;;
6019;SDS011;3038;51.122;6.840;2023-12-20T10:50:57;14.13;;;3.43;;
6019;SDS011;3038;51.122;6.840;2023-12-20T10:53:24;9.17;;;3.90;;
6019;SDS011;3038;51.122;6.840;2023-12-20T10:55:50;8.70;;;2.97;;
6019;SDS011;3038;51.122;6.840;2023-12-20T10:58:21;6.70;;;3.70;;
6019;SDS011;3038;51.122;6.840;2023-12-20T11:00:47;8.57;;;4.53;;
6019;SDS011;3038;51.122;6.840;2023-12-20T11:03:18;7.60;;;3.20;;
6019;SDS011;3038;51.122;6.840;2023-12-20T11:05:58;5.97;;;3.13;;
6019;SDS011;3038;51.122;6.840;2023-12-20T11:08:38;10.73;;;3.83;;
6019;SDS011;3038;51.122;6.840;2023-12-20T11:11:12;9.87;;;4.87;;
6019;SDS011;3038;51.122;6.840;2023-12-20T11:14:03;7.90;;;3.80;;
6019;SDS011;3038;51.122;6.840;2023-12-20T11:16:31;8.57;;;5.37;;
6019;SDS011;3038;51.122;6.840;2023-12-20T11:19:04;7.60;;;3.73;;
6019;SDS011;3038;51.122;6.840;2023-12-20T11:21:30;13.97;;;4.60;;
6019;SDS011;3038;51.122;6.840;2023-12-20T11:23:56;16.57;;;4.57;;
6019;SDS011;3038;51.122;6.840;2023-12-20T11:26:27;7.17;;;2.93;;
6019;SDS011;3038;51.122;6.840;2023-12-20T11:28:54;9.17;;;3.20;;
6019;SDS011;3038;51.122;6.840;2023-12-20T11:31:40;3.80;;;2.50;;
6019;SDS011;3038;51.122;6.840;2023-12-20T11:34:13;6.70;;;3.67;;
6019;SDS011;3038;51.122;6.840;2023-12-20T11:36:39;6.60;;;3.20;;
6019;SDS011;3038;51.122;6.840;2023-12-20T11:39:04;11.80;;;4.43;;
6019;SDS011;3038;51.122;6.840;2023-12-20T11:41:33;5.23;;;3.57;;
6019;SDS011;3038;51.122;6.840;2023-12-20T11:43:59;9.70;;;4.23;;
6019;SDS011;3038;51.122;6.840;2023-12-20T11:46:26;9.00;;;4.00;;
6019;SDS011;3038;51.122;6.840;2023-12-20T11:48:51;12.87;;;3.23;;
6019;SDS011;3038;51.122;6.840;2023-12-20T11:51:16;4.33;;;3.07;;
6019;SDS011;3038;51.122;6.840;2023-12-20T11:53:42;5.07;;;2.70;;
6019;SDS011;3038;51.122;6.840;2023-12-20T11:56:08;9.80;;;3.60;;
6019;SDS011;3038;51.122;6.840;2023-12-20T11:58:34;4.80;;;3.30;;
6019;SDS011;3038;51.122;6.840;2023-12-20T12:01:01;6.93;;;3.63;;
6019;SDS011;3038;51.122;6.840;2023-12-20T12:03:32;8.10;;;3.37;;
6019;SDS011;3038;51.122;6.840;2023-12-20T12:05:57;8.23;;;4.13;;
6019;SDS011;3038;51.122;6.840;2023-12-20T12:08:23;6.00;;;2.80;;
6019;SDS011;3038;51.122;6.840;2023-12-20T12:10:48;10.27;;;4.40;;
6019;SDS011;3038;51.122;6.840;2023-12-20T12:13:14;23.97;;;6.83;;
6019;SDS011;3038;51.122;6.840;2023-12-20T12:15:40;16.53;;;4.60;;
6019;SDS011;3038;51.122;6.840;2023-12-20T12:18:07;13.27;;;3.50;;
6019;SDS011;3038;51.122;6.840;2023-12-20T12:20:32;7.00;;;3.10;;
6019;SDS011;3038;51.122;6.840;2023-12-20T12:23:01;8.87;;;4.40;;
6019;SDS011;3038;51.122;6.840;2023-12-20T12:25:28;16.50;;;5.90;;
6019;SDS011;3038;51.122;6.840;2023-12-20T12:27:57;8.70;;;5.03;;
6019;SDS011;3038;51.122;6.840;2023-12-20T12:30:23;12.20;;;5.20;;
6019;SDS011;3038;51.122;6.840;2023-12-20T12:32:49;17.20;;;5.90;;
6019;SDS011;3038;51.122;6.840;2023-12-20T12:35:16;7.40;;;3.73;;
6019;SDS011;3038;51.122;6.840;2023-12-20T12:37:41;12.87;;;6.60;;
6019;SDS011;3038;51.122;6.840;2023-12-20T12:40:07;7.27;;;3.63;;
6019;SDS011;3038;51.122;6.840;2023-12-20T12:42:35;24.13;;;7.30;;
6019;SDS011;3038;51.122;6.840;2023-12-20T12:45:01;13.73;;;6.90;;
6019;SDS011;3038;51.122;6.840;2023-12-20T12:47:27;23.43;;;11.50;;
6019;SDS011;3038;51.122;6.840;2023-12-20T12:49:53;24.57;;;14.03;;
6019;SDS011;3038;51.122;6.840;2023-12-20T12:52:18;16.13;;;9.20;;
6019;SDS011;3038;51.122;6.840;2023-12-20T12:54:45;14.30;;;7.80;;
6019;SDS011;3038;51.122;6.840;2023-12-20T12:57:10;7.07;;;5.23;;
6019;SDS011;3038;51.122;6.840;2023-12-20T12:59:36;14.20;;;6.40;;
6019;SDS011;3038;51.122;6.840;2023-12-20T13:02:04;10.17;;;4.93;;
6019;SDS011;3038;51.122;6.840;2023-12-20T13:04:29;5.97;;;4.00;;
6019;SDS011;3038;51.122;6.840;2023-12-20T13:06:55;8.97;;;5.87;;
6019;SDS011;3038;51.122;6.840;2023-12-20T13:09:22;4.53;;;4.03;;
6019;SDS011;3038;51.122;6.840;2023-12-20T13:11:47;9.30;;;5.63;;
6019;SDS011;3038;51.122;6.840;2023-12-20T13:14:13;14.63;;;6.13;;
6019;SDS011;3038;51.122;6.840;2023-12-20T13:16:40;10.60;;;4.63;;
6019;SDS011;3038;51.122;6.840;2023-12-20T13:19:06;9.37;;;4.73;;
6019;SDS011;3038;51.122;6.840;2023-12-20T13:21:32;8.77;;;4.67;;
6019;SDS011;3038;51.122;6.840;2023-12-20T13:23:57;11.73;;;6.37;;
6019;SDS011;3038;51.122;6.840;2023-12-20T13:26:23;13.63;;;4.97;;
6019;SDS011;3038;51.122;6.840;2023-12-20T13:28:50;8.87;;;3.20;;
6019;SDS011;3038;51.122;6.840;2023-12-20T13:31:19;11.97;;;4.90;;
6019;SDS011;3038;51.122;6.840;2023-12-20T13:33:45;5.30;;;4.80;;
6019;SDS011;3038;51.122;6.840;2023-12-20T13:36:10;13.13;;;6.07;;
6019;SDS011;3038;51.122;6.840;2023-12-20T13:38:35;13.20;;;4.63;;
6019;SDS011;3038;51.122;6.840;2023-12-20T13:41:04;9.43;;;5.00;;
6019;SDS011;3038;51.122;6.840;2023-12-20T13:43:30;8.83;;;4.70;;
6019;SDS011;3038;51.122;6.840;2023-12-20T13:45:57;10.20;;;4.47;;
6019;SDS011;3038;51.122;6.840;2023-12-20T13:48:23;10.03;;;3.80;;
6019;SDS011;3038;51.122;6.840;2023-12-20T13:50:48;8.87;;;4.13;;
6019;SDS011;3038;51.122;6.840;2023-12-20T13:53:13;7.53;;;4.80;;
6019;SDS011;3038;51.122;6.840;2023-12-20T13:55:39;9.30;;;4.83;;
6019;SDS011;3038;51.122;6.840;2023-12-20T13:58:05;8.87;;;5.47;;
6019;SDS011;3038;51.122;6.840;2023-12-20T14:00:30;9.93;;;3.87;;
6019;SDS011;3038;51.122;6.840;2023-12-20T14:02:56;9.77;;;5.20;;
6019;SDS011;3038;51.122;6.840;2023-12-20T14:05:21;5.30;;;4.63;;
6019;SDS011;3038;51.122;6.840;2023-12-20T14:07:48;9.40;;;4.87;;
6019;SDS011;3038;51.122;6.840;2023-12-20T14:10:14;9.77;;;4.13;;
6019;SDS011;3038;51.122;6.840;2023-12-20T14:12:39;7.77;;;4.60;;
6019;SDS011;3038;51.122;6.840;2023-12-20T14:15:05;7.73;;;4.00;;
6019;SDS011;3038;51.122;6.840;2023-12-20T14:17:38;7.27;;;4.30;;
6019;SDS011;3038;51.122;6.840;2023-12-20T14:20:05;7.97;;;4.77;;
6019;SDS011;3038;51.122;6.840;2023-12-20T14:22:31;4.90;;;3.97;;
6019;SDS011;3038;51.122;6.840;2023-12-20T14:24:59;6.00;;;4.07;;
6019;SDS011;3038;51.122;6.840;2023-12-20T14:27:24;9.43;;;5.80;;
6019;SDS011;3038;51.122;6.840;2023-12-20T14:29:52;6.30;;;4.57;;
6019;SDS011;3038;51.122;6.840;2023-12-20T14:32:18;8.40;;;4.27;;
6019;SDS011;3038;51.122;6.840;2023-12-20T14:34:43;6.47;;;3.17;;
6019;SDS011;3038;51.122;6.840;2023-12-20T14:37:11;6.37;;;4.40;;
6019;SDS011;3038;51.122;6.840;2023-12-20T14:39:37;5.10;;;3.37;;
6019;SDS011;3038;51.122;6.840;2023-12-20T14:42:09;9.30;;;4.70;;
6019;SDS011;3038;51.122;6.840;2023-12-20T14:44:38;10.57;;;6.13;;
6019;SDS011;3038;51.122;6.840;2023-12-20T14:47:04;5.53;;;3.20;;
6019;SDS011;3038;51.122;6.840;2023-12-20T14:49:30;5.63;;;4.00;;
6019;SDS011;3038;51.122;6.840;2023-12-20T14:51:56;4.07;;;3.10;;
6019;SDS011;3038;51.122;6.840;2023-12-20T14:54:21;7.70;;;4.30;;
6019;SDS011;3038;51.122;6.840;2023-12-20T14:56:47;6.30;;;4.57;;
6019;SDS011;3038;51.122;6.840;2023-12-20T14:59:12;9.87;;;4.80;;
6019;SDS011;3038;51.122;6.840;2023-12-20T15:01:38;7.90;;;4.47;;
6019;SDS011;3038;51.122;6.840;2023-12-20T15:04:05;12.20;;;5.93;;